Terminal Aerodrome Forecast
Issued by NWS

Home | Current Version | Previous Version | Text Only | Print | Product List | Glossary On
Versions: 1 2 3 4 5 6 7 8 9 10 11 12 13 14 15 16 17
630
FTUS43 KILX 261128
TAFCMI
TAF
KCMI 261128Z 2612/2712 21010KT P6SM VCSH SCT007 OVC014
     FM262100 23008KT P6SM OVC015
     FM270000 24007KT P6SM OVC025=

USA.gov is the U.S. government's official web portal to all federal, state and local government web resources and services.